Time;durP1;ratioP1;P1;durP2;ratioP2;P2;SDS_P1;SDS_P2;PMS_P1;PMS_P2;Temp;Humidity;BMP_temperature;BMP_pressure;BME280_temperature;BME280_humidity;BME280_pressure;Samples;Min_cycle;Max_cycle;Signal;HPM_P1;HPM_P2
2022/08/24 00:01:02;;;;;;;67.82;30.92;;;;;;;19.53;100.00;100622.06;5053481;28;20025;-78
2022/08/24 00:03:28;;;;;;;67.72;30.30;;;;;;;19.56;100.00;100636.81;5052763;28;20017;-80
2022/08/24 00:05:54;;;;;;;66.30;29.92;;;;;;;19.61;100.00;100630.16;5051205;28;20064;-81
2022/08/24 00:08:20;;;;;;;62.25;29.13;;;;;;;19.61;100.00;100624.34;5053074;28;20045;-80
2022/08/24 00:10:45;;;;;;;65.70;30.80;;;;;;;19.60;100.00;100629.34;5053052;28;20045;-79
2022/08/24 00:13:12;;;;;;;72.13;28.73;;;;;;;19.59;100.00;100629.91;5051877;28;20037;-80
2022/08/24 00:15:38;;;;;;;71.55;29.90;;;;;;;19.58;100.00;100628.31;5050679;28;20067;-80
2022/08/24 00:18:04;;;;;;;73.35;30.90;;;;;;;19.58;100.00;100637.81;5050544;28;20029;-80
2022/08/24 00:20:30;;;;;;;69.82;30.05;;;;;;;19.52;100.00;100634.97;5034385;28;20033;-81
2022/08/24 00:22:55;;;;;;;74.38;31.70;;;;;;;19.54;100.00;100628.66;5052285;28;20043;-79
2022/08/24 00:25:21;;;;;;;70.32;30.48;;;;;;;19.58;100.00;100620.41;5051812;28;20059;-81
2022/08/24 00:27:47;;;;;;;64.80;28.63;;;;;;;19.61;100.00;100630.16;5054268;28;20470;-80
2022/08/24 00:30:16;;;;;;;73.70;30.40;;;;;;;19.63;100.00;100624.56;5036522;28;20029;-80
2022/08/24 00:32:42;;;;;;;69.70;29.58;;;;;;;19.61;100.00;100624.34;5036081;28;20032;-80
2022/08/24 00:35:09;;;;;;;72.07;29.85;;;;;;;19.64;100.00;100621.13;5036123;28;20098;-80
2022/08/24 00:37:35;;;;;;;71.10;30.15;;;;;;;19.63;100.00;100610.84;5056831;28;20071;-80
2022/08/24 00:40:03;;;;;;;69.90;29.55;;;;;;;19.66;100.00;100615.53;5040127;28;20041;-81
2022/08/24 00:42:29;;;;;;;76.88;32.75;;;;;;;19.58;100.00;100613.84;5056655;28;20017;-81
2022/08/24 00:44:54;;;;;;;70.65;29.85;;;;;;;19.60;100.00;100602.47;5056738;28;20369;-81
2022/08/24 00:47:26;;;;;;;66.47;29.90;;;;;;;19.58;100.00;100608.03;5057952;28;20117;-81
2022/08/24 00:50:13;;;;;;;72.38;30.67;;;;;;;19.57;100.00;100607.25;5039963;28;20091;-80
2022/08/24 00:52:42;;;;;;;76.40;31.05;;;;;;;19.52;100.00;100599.41;5056625;28;20029;-80
2022/08/24 00:55:22;;;;;;;83.60;31.35;;;;;;;19.52;100.00;100597.28;5040012;28;20021;-81
2022/08/24 00:57:50;;;;;;;71.35;30.30;;;;;;;19.55;100.00;100601.22;5039897;28;20096;-80
2022/08/24 01:00:20;;;;;;;73.75;30.55;;;;;;;19.55;100.00;100592.53;5057951;28;20111;-80
2022/08/24 01:02:47;;;;;;;76.63;30.95;;;;;;;19.58;100.00;100597.22;5040712;28;20044;-81
2022/08/24 01:05:16;;;;;;;77.53;32.30;;;;;;;19.58;100.00;100593.53;5057588;28;20052;-79
2022/08/24 01:07:42;;;;;;;69.95;30.38;;;;;;;19.50;100.00;100593.41;5058250;28;20028;-80
2022/08/24 01:10:12;;;;;;;81.70;31.48;;;;;;;19.41;100.00;100594.53;5024079;28;20112;-80
2022/08/24 01:12:40;;;;;;;75.15;29.83;;;;;;;19.40;100.00;100592.22;5057060;28;20032;-80
2022/08/24 01:15:08;;;;;;;86.90;33.20;;;;;;;19.43;100.00;100600.59;5055991;28;20108;-80
2022/08/24 01:20:19;;;;;;;76.72;31.77;;;;;;;19.48;100.00;100599.72;5057142;28;20078;-79
2022/08/24 01:23:12;;;;;;;80.07;33.13;;;;;;;19.52;100.00;100594.41;5039135;28;20025;-80
2022/08/24 01:25:42;;;;;;;84.85;32.58;;;;;;;19.53;100.00;100589.38;5056820;28;20036;-80
2022/08/24 01:28:12;;;;;;;79.85;31.20;;;;;;;19.52;100.00;100590.72;5039599;28;20025;-79
2022/08/24 01:30:38;;;;;;;80.40;32.75;;;;;;;19.54;100.00;100576.47;5056279;28;20036;-79
2022/08/24 01:33:06;;;;;;;77.47;30.98;;;;;;;19.56;100.00;100576.69;5039819;28;20033;-79
2022/08/24 01:35:33;;;;;;;70.20;31.88;;;;;;;19.58;100.00;100576.13;5057365;28;20469;-80
2022/08/24 01:38:01;;;;;;;85.28;34.17;;;;;;;19.58;100.00;100579.81;5040609;28;20158;-80
2022/08/24 01:40:36;;;;;;;72.82;31.27;;;;;;;19.60;100.00;100573.47;5056439;28;20481;-80
2022/08/24 01:43:03;;;;;;;83.65;34.63;;;;;;;19.62;100.00;100586.09;5039576;28;20116;-79
2022/08/24 01:45:29;;;;;;;78.90;31.98;;;;;;;19.65;100.00;100584.22;5038960;28;20036;-78
2022/08/24 01:47:55;;;;;;;79.60;34.88;;;;;;;19.64;100.00;100591.34;5037828;28;20504;-78
2022/08/24 01:50:20;;;;;;;89.70;33.92;;;;;;;19.64;100.00;100595.03;5037981;28;20053;-79
2022/08/24 01:52:46;;;;;;;77.93;32.58;;;;;;;19.66;100.00;100595.25;5055608;28;20478;-79
2022/08/24 01:55:15;;;;;;;86.63;34.35;;;;;;;19.68;100.00;100592.59;5054358;28;20079;-80
2022/08/24 01:57:41;;;;;;;75.22;33.65;;;;;;;19.71;100.00;100591.47;5056410;28;20036;-79
2022/08/24 02:00:09;;;;;;;77.20;30.98;;;;;;;19.73;100.00;100593.84;5054264;28;20043;-80
2022/08/24 02:02:35;;;;;;;85.47;34.15;;;;;;;19.72;100.00;100595.94;5054427;28;20024;-80
2022/08/24 02:05:01;;;;;;;81.13;32.97;;;;;;;19.74;100.00;100607.78;5055364;28;20064;-81
2022/08/24 02:07:28;;;;;;;83.57;32.50;;;;;;;19.75;100.00;100609.38;5053486;28;20541;-79
2022/08/24 02:09:53;;;;;;;79.50;32.58;;;;;;;19.77;100.00;100609.59;5054172;28;20029;-80
2022/08/24 02:12:20;;;;;;;75.50;31.90;;;;;;;19.80;100.00;100608.50;5055177;28;20043;-79
2022/08/24 02:14:46;;;;;;;73.78;31.17;;;;;;;19.82;100.00;100614.50;5054903;28;20029;-80
2022/08/24 02:17:12;;;;;;;69.95;33.90;;;;;;;19.84;100.00;100620.56;5055893;28;20351;-79
2022/08/24 02:19:37;;;;;;;65.13;31.90;;;;;;;19.86;100.00;100626.59;5057207;28;20024;-80
2022/08/24 02:22:03;;;;;;;68.32;30.00;;;;;;;19.87;100.00;100621.56;5055762;28;20100;-80
2022/08/24 02:24:29;;;;;;;63.30;31.98;;;;;;;19.86;100.00;100631.59;5056924;28;20412;-80
2022/08/24 02:26:55;;;;;;;65.93;32.05;;;;;;;19.88;100.00;100632.63;5055546;28;20374;-79
2022/08/24 02:29:21;;;;;;;61.13;30.50;;;;;;;19.90;100.00;100632.88;5054858;28;20308;-80
2022/08/24 02:31:46;;;;;;;70.90;30.65;;;;;;;19.94;100.00;100632.56;5055703;28;20036;-80
2022/08/24 02:34:12;;;;;;;77.60;33.38;;;;;;;19.95;100.00;100637.81;5055722;28;20032;-80
2022/08/24 02:36:38;;;;;;;62.55;31.25;;;;;;;19.95;100.00;100643.59;5055820;28;20063;-80
2022/08/24 02:39:04;;;;;;;72.70;31.55;;;;;;;19.98;100.00;100646.75;5055755;28;20025;-80
2022/08/24 02:41:31;;;;;;;65.97;29.90;;;;;;;19.98;100.00;100644.63;5056960;28;20055;-80
2022/08/24 02:43:56;;;;;;;63.17;30.20;;;;;;;19.97;100.00;100643.06;5056418;28;20025;-80
2022/08/24 02:46:25;;;;;;;60.17;29.52;;;;;;;19.99;100.00;100640.41;5057018;28;20029;-80
2022/08/24 02:48:51;;;;;;;64.00;31.40;;;;;;;20.00;100.00;100638.28;5055257;28;20028;-79
2022/08/24 02:51:25;;;;;;;61.25;30.50;;;;;;;20.00;100.00;100641.19;5055085;28;20025;-80
2022/08/24 02:53:51;;;;;;;73.03;30.98;;;;;;;19.97;100.00;100637.25;5038004;28;20053;-80
2022/08/24 02:56:17;;;;;;;68.13;31.52;;;;;;;19.95;100.00;100634.91;5056763;28;20052;-79
2022/08/24 02:58:47;;;;;;;67.00;31.67;;;;;;;19.92;100.00;100624.38;5055869;28;20020;-79
2022/08/24 03:01:13;;;;;;;68.97;30.55;;;;;;;19.94;100.00;100633.38;5055610;28;20036;-79
2022/08/24 03:03:39;;;;;;;65.93;30.55;;;;;;;19.92;100.00;100632.28;5055501;28;20537;-80
2022/08/24 03:06:05;;;;;;;70.47;31.25;;;;;;;19.92;100.00;100644.69;5055005;28;20077;-79
2022/08/24 03:08:31;;;;;;;70.50;32.13;;;;;;;19.88;100.00;100643.44;5054816;28;20478;-80
2022/08/24 03:10:59;;;;;;;75.32;34.85;;;;;;;19.82;100.00;100642.72;5055134;28;20036;-78
2022/08/24 03:13:26;;;;;;;72.97;32.03;;;;;;;19.82;100.00;100651.44;5038345;28;20431;-80
2022/08/24 03:15:52;;;;;;;71.85;31.13;;;;;;;19.82;100.00;100649.31;5056287;28;20025;-80
2022/08/24 03:18:18;;;;;;;74.68;32.65;;;;;;;19.86;100.00;100649.78;5053662;28;20029;-79
2022/08/24 03:20:43;;;;;;;75.70;33.22;;;;;;;19.87;100.00;100660.06;5056310;28;20032;-80
2022/08/24 03:23:08;;;;;;;66.53;30.90;;;;;;;19.87;100.00;100650.56;5056479;28;20028;-80
2022/08/24 03:25:34;;;;;;;71.60;30.42;;;;;;;19.86;100.00;100658.50;5054596;28;20059;-79
2022/08/24 03:28:00;;;;;;;67.32;31.85;;;;;;;19.86;100.00;100655.59;5055633;28;20120;-78
2022/08/24 03:30:25;;;;;;;63.10;31.00;;;;;;;19.86;100.00;100658.50;5055254;28;20039;-79
2022/08/24 03:32:51;;;;;;;60.88;29.85;;;;;;;19.90;100.00;100664.00;5055670;28;20017;-79
2022/08/24 03:35:17;;;;;;;53.67;29.50;;;;;;;19.89;100.00;100669.00;5054205;28;20071;-79
2022/08/24 03:37:42;;;;;;;54.92;28.73;;;;;;;19.92;100.00;100665.00;5037810;28;20017;-79
2022/08/24 03:40:10;;;;;;;50.97;26.45;;;;;;;19.93;100.00;100677.38;5037336;28;20021;-80
2022/08/24 03:42:36;;;;;;;49.42;28.15;;;;;;;19.95;100.00;100680.56;5054373;28;20024;-79
2022/08/24 03:45:01;;;;;;;43.47;26.75;;;;;;;19.98;100.00;100681.56;5055910;28;20071;-79
2022/08/24 03:47:27;;;;;;;49.63;25.92;;;;;;;20.00;100.00;100682.59;5037567;28;20108;-80
2022/08/24 03:49:52;;;;;;;46.40;25.58;;;;;;;20.00;100.00;100682.59;5053787;28;20017;-78
2022/08/24 03:52:18;;;;;;;50.25;26.23;;;;;;;19.97;100.00;100677.88;5054874;28;20031;-78
2022/08/24 03:54:43;;;;;;;50.20;26.10;;;;;;;19.98;100.00;100693.19;5053497;28;20028;-78
2022/08/24 03:57:09;;;;;;;51.13;26.90;;;;;;;19.98;100.00;100696.88;5055752;28;20021;-79
2022/08/24 03:59:34;;;;;;;44.67;25.88;;;;;;;20.00;100.00;100691.31;5055493;28;20025;-79
2022/08/24 04:02:00;;;;;;;47.35;26.17;;;;;;;20.01;100.00;100697.88;5054693;28;20030;-79
2022/08/24 04:04:25;;;;;;;44.28;25.60;;;;;;;20.03;100.00;100701.78;5053774;28;20021;-78
2022/08/24 04:06:51;;;;;;;46.03;27.50;;;;;;;20.05;100.00;100698.34;5053674;28;20041;-78
2022/08/24 04:09:17;;;;;;;52.63;28.55;;;;;;;20.05;100.00;100701.25;5053851;28;20049;-80
2022/08/24 04:11:44;;;;;;;52.78;28.23;;;;;;;20.06;100.00;100700.69;5053468;28;20029;-79
2022/08/24 04:14:10;;;;;;;53.78;28.27;;;;;;;20.09;100.00;100693.00;5053500;28;20035;-79
2022/08/24 04:16:36;;;;;;;49.88;28.05;;;;;;;20.10;100.00;100700.38;5053974;28;20029;-79
2022/08/24 04:19:01;;;;;;;46.20;28.10;;;;;;;20.10;100.00;100698.28;5055264;28;20040;-78
2022/08/24 04:21:29;;;;;;;48.58;27.98;;;;;;;20.11;100.00;100702.72;5054923;28;20024;-79
2022/08/24 04:23:55;;;;;;;50.60;26.80;;;;;;;20.09;100.00;100693.81;5052933;28;20055;-78
2022/08/24 04:26:25;;;;;;;49.63;26.80;;;;;;;20.08;100.00;100700.94;5053966;28;20106;-78
2022/08/24 04:28:51;;;;;;;48.95;27.38;;;;;;;20.10;100.00;100703.28;5053718;28;20036;-78
2022/08/24 04:31:17;;;;;;;52.65;27.55;;;;;;;20.11;100.00;100704.84;5064021;28;20036;-79
2022/08/24 04:33:46;;;;;;;47.65;26.73;;;;;;;20.12;100.00;100703.50;5074156;28;20086;-78
2022/08/24 04:36:12;;;;;;;48.90;26.35;;;;;;;20.15;100.00;100700.28;5073448;28;20136;-79
2022/08/24 04:38:39;;;;;;;52.83;27.45;;;;;;;20.20;100.00;100696.50;5074227;28;20075;-79
2022/08/24 04:41:11;;;;;;;47.53;25.80;;;;;;;20.25;100.00;100698.53;5073794;28;20380;-79
2022/08/24 04:43:38;;;;;;;;;;;;;;;20.32;100.00;100702.94;5058330;28;20051;-77
2022/08/24 04:46:06;;;;;;;48.72;27.17;;;;;;;20.34;100.00;100703.19;5054924;28;20026;-79
2022/08/24 04:48:32;;;;;;;52.55;26.77;;;;;;;20.38;100.00;100703.63;5053392;28;20068;-80
2022/08/24 04:51:04;;;;;;;45.88;26.00;;;;;;;20.44;100.00;100697.75;5036202;28;20029;-79
2022/08/24 04:53:33;;;;;;;49.90;25.60;;;;;;;20.49;100.00;100705.56;5035906;28;20037;-81
2022/08/24 04:55:59;;;;;;;45.35;24.73;;;;;;;20.49;100.00;100712.16;5069284;28;20058;-79
2022/08/24 04:58:25;;;;;;;44.97;25.40;;;;;;;20.50;100.00;100710.81;5057158;28;20041;-79
2022/08/24 05:00:51;;;;;;;45.05;25.35;;;;;;;20.50;100.00;100707.91;5049477;28;20107;-79
2022/08/24 05:03:17;;;;;;;44.70;26.13;;;;;;;20.53;100.00;100714.75;5055358;28;20036;-78
2022/08/24 05:05:47;;;;;;;39.45;25.17;;;;;;;20.52;100.00;100718.97;5053138;28;20071;-80
2022/08/24 05:08:15;;;;;;;44.42;25.60;;;;;;;20.56;100.00;100714.41;5037300;28;20025;-78
2022/08/24 05:10:46;;;;;;;43.15;27.75;;;;;;;20.60;100.00;100714.88;5052960;28;20511;-78
2022/08/24 05:13:14;;;;;;;39.33;23.33;;;;;;;20.64;100.00;100724.06;5053517;28;20032;-81
2022/08/24 05:15:43;;;;;;;38.60;22.40;;;;;;;20.75;100.00;100720.19;5052399;28;20025;-80
2022/08/24 05:18:23;;;;;;;42.95;23.63;;;;;;;20.85;100.00;100706.81;5051972;28;20051;-81
2022/08/24 05:20:50;;;;;;;45.88;25.10;;;;;;;20.89;100.00;100709.41;5051804;28;20048;-78
2022/08/24 05:23:18;;;;;;;33.28;22.48;;;;;;;20.96;100.00;100714.53;5037864;28;20113;-79
2022/08/24 05:25:44;;;;;;;39.60;22.65;;;;;;;20.94;100.00;100714.31;5038797;28;20025;-79
2022/08/24 05:28:11;;;;;;;36.47;21.48;;;;;;;20.94;100.00;100711.44;5055775;28;20017;-79
2022/08/24 05:30:36;;;;;;;36.55;21.90;;;;;;;20.96;100.00;100709.50;5057080;28;20049;-80
2022/08/24 05:33:02;;;;;;;38.72;22.17;;;;;;;20.93;100.00;100710.63;5058638;28;20323;-79
2022/08/24 05:35:29;;;;;;;36.75;21.48;;;;;;;20.95;100.00;100705.03;5061398;28;20021;-78
2022/08/24 05:37:54;;;;;;;40.58;22.27;;;;;;;20.94;100.00;100700.56;5055809;28;20048;-76
2022/08/24 05:40:22;;;;;;;36.28;24.00;;;;;;;20.94;100.00;100703.47;5057089;28;20025;-76
2022/08/24 05:42:48;;;;;;;39.95;24.38;;;;;;;20.99;100.00;100705.47;5056568;28;20017;-75
2022/08/24 05:45:13;;;;;;;37.95;22.63;;;;;;;21.06;100.00;100704.84;5066291;28;20032;-83
2022/08/24 05:47:39;;;;;;;38.08;21.38;;;;;;;21.17;100.00;100707.53;5070284;28;20044;-82
2022/08/24 05:50:05;;;;;;;36.95;22.73;;;;;;;21.24;100.00;100712.66;5067393;28;20056;-82
2022/08/24 05:52:31;;;;;;;38.03;21.08;;;;;;;21.23;100.00;100702.41;5065166;28;20032;-81
2022/08/24 05:54:58;;;;;;;34.72;21.02;;;;;;;21.27;100.00;100715.81;5049667;28;20021;-83
2022/08/24 05:57:26;;;;;;;34.45;21.33;;;;;;;21.31;100.00;100713.34;5051164;28;20021;-83
2022/08/24 05:59:52;;;;;;;34.15;20.25;;;;;;;21.33;100.00;100708.56;5048912;28;20028;-82
2022/08/24 06:02:18;;;;;;;33.83;21.45;;;;;;;21.40;100.00;100707.88;5055654;28;20487;-84
2022/08/24 06:04:44;;;;;;;30.25;19.90;;;;;;;21.49;100.00;100710.34;5067390;28;20022;-87
2022/08/24 06:07:11;;;;;;;32.33;18.55;;;;;;;21.58;100.00;100712.78;5049029;28;20045;-82
2022/08/24 06:09:38;;;;;;;29.70;20.35;;;;;;;21.63;100.00;100717.72;5065012;28;20032;-81
2022/08/24 06:12:04;;;;;;;36.25;22.00;;;;;;;21.65;100.00;100720.06;5046984;28;20374;-83
2022/08/24 06:14:29;;;;;;;30.60;20.73;;;;;;;21.66;100.00;100724.53;5061960;28;20028;-82
2022/08/24 06:16:55;;;;;;;32.90;22.05;;;;;;;21.69;100.00;100723.41;5062209;28;20071;-83
2022/08/24 06:19:21;;;;;;;35.30;21.80;;;;;;;21.72;100.00;100721.53;5050339;28;20462;-84
2022/08/24 06:21:49;;;;;;;31.17;22.25;;;;;;;21.81;100.00;100727.66;5059657;28;20028;-84
2022/08/24 06:24:14;;;;;;;34.13;21.33;;;;;;;21.95;100.00;100728.41;5058743;28;20021;-86
2022/08/24 06:29:25;;;;;;;32.05;21.08;;;;;;;22.09;100.00;100727.03;5057794;28;20112;-78
2022/08/24 06:31:51;;;;;;;28.50;19.92;;;;;;;22.09;100.00;100730.72;5065879;28;20021;-80
2022/08/24 06:34:17;;;;;;;29.63;20.15;;;;;;;22.09;100.00;100738.69;5053520;28;20017;-77
2022/08/24 06:36:43;;;;;;;33.70;19.23;;;;;;;22.07;100.00;100744.28;5055766;28;20105;-76
2022/08/24 06:39:09;;;;;;;31.20;21.38;;;;;;;22.03;100.00;100744.63;5055948;28;20051;-78
2022/08/24 06:41:35;;;;;;;25.95;18.08;;;;;;;22.00;100.00;100744.97;5054183;28;20028;-76
2022/08/24 06:44:01;;;;;;;34.45;20.17;;;;;;;21.98;100.00;100741.81;5055552;28;20021;-80
2022/08/24 06:46:27;;;;;;;34.00;22.98;;;;;;;21.92;100.00;100747.78;5056771;28;20117;-75
2022/08/24 06:48:53;;;;;;;35.40;22.45;;;;;;;21.88;100.00;100744.41;5056821;28;20052;-74
2022/08/24 06:51:21;;;;;;;31.40;21.58;;;;;;;21.83;100.00;100747.47;5055730;28;20027;-76
2022/08/24 06:53:47;;;;;;;35.30;21.90;;;;;;;21.78;100.00;100740.41;5055142;28;20425;-78
2022/08/24 06:56:13;;;;;;;32.15;19.13;;;;;;;21.77;100.00;100735.97;5054091;28;20028;-79
2022/08/24 06:58:38;;;;;;;34.25;20.30;;;;;;;21.82;100.00;100743.78;5054119;28;20025;-78
2022/08/24 07:01:12;;;;;;;35.30;20.17;;;;;;;21.84;100.00;100729.44;5037852;28;20059;-82
2022/08/24 07:03:38;;;;;;;35.38;20.10;;;;;;;21.91;100.00;100742.53;5061442;28;20028;-83
2022/08/24 07:06:05;;;;;;;32.65;20.05;;;;;;;21.93;100.00;100731.88;5060543;28;20041;-81
2022/08/24 07:08:31;;;;;;;37.75;20.95;;;;;;;22.01;100.00;100731.97;5042560;28;20032;-81
2022/08/24 07:10:56;;;;;;;31.08;20.83;;;;;;;22.02;100.00;100746.00;5046414;28;20021;-82
2022/08/24 07:13:21;;;;;;;40.13;20.77;;;;;;;22.03;100.00;100738.78;5073253;28;20470;-82
2022/08/24 07:15:50;;;;;;;34.10;19.90;;;;;;;22.01;100.00;100729.88;5050376;28;20382;-82
2022/08/24 07:18:16;;;;;;;34.55;21.70;;;;;;;21.97;100.00;100725.72;5072787;28;20072;-81
2022/08/24 07:20:42;;;;;;;29.23;19.42;;;;;;;21.96;100.00;100730.78;5078908;28;20036;-80
2022/08/24 07:23:11;;;;;;;32.97;20.20;;;;;;;21.99;100.00;100726.72;5077716;28;20037;-79
2022/08/24 07:25:37;;;;;;;31.35;19.95;;;;;;;22.04;100.00;100722.91;5061043;28;20032;-80
2022/08/24 07:28:03;;;;;;;34.28;19.83;;;;;;;22.23;100.00;100728.56;5061563;28;20005;-80
2022/08/24 07:30:28;;;;;;;28.10;18.27;;;;;;;22.63;100.00;100723.38;5078936;28;20039;-81
2022/08/24 07:32:56;;;;;;;27.00;17.27;;;;;;;23.08;100.00;100733.91;5078008;28;20055;-79
2022/08/24 07:35:22;;;;;;;24.35;17.40;;;;;;;23.30;100.00;100718.72;5078663;28;20025;-81
2022/08/24 07:37:47;;;;;;;25.40;16.58;;;;;;;23.45;100.00;100724.66;5076297;28;20017;-80
2022/08/24 07:40:13;;;;;;;25.08;16.98;;;;;;;23.56;100.00;100730.16;5074221;28;20059;-79
2022/08/24 07:42:41;;;;;;;29.02;16.90;;;;;;;23.62;100.00;100724.19;5073976;28;20051;-79
2022/08/24 07:45:07;;;;;;;25.48;15.95;;;;;;;23.73;100.00;100745.06;5058973;28;20021;-79
2022/08/24 07:47:33;;;;;;;21.83;15.10;;;;;;;23.82;100.00;100740.81;5075235;28;20051;-79
2022/08/24 07:49:58;;;;;;;23.58;15.82;;;;;;;23.82;100.00;100737.91;5075225;28;20076;-80
2022/08/24 07:52:24;;;;;;;28.42;15.93;;;;;;;23.85;100.00;100748.44;5074389;28;20029;-80
2022/08/24 07:54:49;;;;;;;23.52;15.82;;;;;;;23.75;100.00;100750.34;5075989;28;20047;-80
2022/08/24 07:57:15;;;;;;;24.63;15.48;;;;;;;23.63;100.00;100754.94;5075663;28;20017;-82
2022/08/24 07:59:40;;;;;;;23.52;14.93;;;;;;;23.51;100.00;100763.19;5057943;28;20028;-82
2022/08/24 08:02:07;;;;;;;21.08;14.60;;;;;;;23.41;100.00;100756.31;5075069;28;20051;-81
2022/08/24 08:04:33;;;;;;;19.83;14.77;;;;;;;23.32;100.00;100756.81;5058668;28;20019;-82
2022/08/24 08:07:00;;;;;;;23.33;15.68;;;;;;;23.18;100.00;100758.28;5075064;28;20037;-80
2022/08/24 08:09:26;;;;;;;19.92;15.68;;;;;;;23.24;100.00;100765.53;5074517;28;20490;-82
2022/08/24 08:11:51;;;;;;;25.33;17.33;;;;;;;23.30;100.00;100769.09;5075299;28;20017;-81
2022/08/24 08:14:16;;;;;;;22.05;16.30;;;;;;;23.33;100.00;100767.16;5074979;28;20021;-81
2022/08/24 08:16:42;;;;;;;23.17;15.50;;;;;;;23.42;100.00;100765.84;5073700;28;20033;-81
2022/08/24 08:19:07;;;;;;;24.17;16.30;;;;;;;23.50;100.00;100767.47;5072578;28;20067;-82
2022/08/24 08:24:18;;;;;;;22.92;16.23;;;;;;;23.68;100.00;100765.66;5070835;28;20067;-81
2022/08/24 08:26:45;;;;;;;21.60;14.57;;;;;;;23.75;100.00;100773.69;5066112;28;20032;-84
2022/08/24 08:29:12;;;;;;;20.73;15.88;;;;;;;23.77;100.00;100762.22;5042526;28;20075;-82
2022/08/24 08:31:40;;;;;;;19.40;15.63;;;;;;;23.90;100.00;100764.22;5035883;28;20032;-82
2022/08/24 08:34:07;;;;;;;24.83;15.30;;;;;;;23.96;100.00;100762.69;5052942;28;20021;-83
2022/08/24 08:36:33;;;;;;;21.38;15.45;;;;;;;24.12;100.00;100763.53;5065813;28;20020;-82
2022/08/24 08:38:58;;;;;;;17.70;14.70;;;;;;;24.26;100.00;100765.00;5059055;28;20021;-81
2022/08/24 08:41:43;;;;;;;27.33;16.08;;;;;;;24.36;100.00;100768.91;5058040;28;20133;-86
2022/08/24 08:44:27;;;;;;;24.77;15.82;;;;;;;24.42;100.00;100777.50;5058902;28;20035;-81
2022/08/24 08:47:11;;;;;;;20.67;15.88;;;;;;;24.45;100.00;100777.13;5071253;28;20417;-80
2022/08/24 08:49:39;;;;;;;21.10;15.90;;;;;;;24.51;100.00;100798.19;5062309;28;20055;-83
2022/08/24 08:52:43;;;;;;;20.08;15.60;;;;;;;24.61;100.00;100790.41;5060917;28;20037;-85
2022/08/24 08:55:33;;;;;;;23.05;16.38;;;;;;;24.66;100.00;100791.59;5069198;28;20025;-80
2022/08/24 08:58:11;;;;;;;19.70;15.68;;;;;;;24.67;100.00;100798.22;5061377;28;20034;-80
2022/08/24 09:00:48;;;;;;;21.23;15.88;;;;;;;24.60;100.00;100785.16;5062899;28;20029;-80
2022/08/24 09:03:20;;;;;;;22.88;16.60;;;;;;;24.67;100.00;100792.38;5066491;28;20028;-78
2022/08/24 09:05:57;;;;;;;25.92;16.45;;;;;;;24.53;100.00;100786.72;5063695;28;20029;-81
2022/08/24 09:08:44;;;;;;;23.88;16.73;;;;;;;24.46;100.00;100792.50;5064716;28;20036;-78
2022/08/24 09:11:15;;;;;;;21.60;15.77;;;;;;;24.47;100.00;100791.16;5069270;28;20024;-80
2022/08/24 09:13:57;;;;;;;20.48;15.48;;;;;;;24.46;100.00;100798.38;5068979;28;20392;-79
2022/08/24 09:16:41;;;;;;;22.75;14.98;;;;;;;24.40;100.00;100801.47;5067454;28;20021;-78
2022/08/24 09:19:23;;;;;;;21.58;15.82;;;;;;;24.38;100.00;100794.66;5058264;28;20049;-79
2022/08/24 09:22:07;;;;;;;20.77;15.70;;;;;;;24.27;100.00;100801.59;5060060;28;20112;-81
2022/08/24 09:24:51;;;;;;;23.13;17.25;;;;;;;24.25;100.00;100803.56;5064892;28;20047;-78
2022/08/24 09:27:31;;;;;;;24.70;16.17;;;;;;;24.21;100.00;100803.88;5068812;28;20048;-78
2022/08/24 09:30:17;;;;;;;25.25;15.65;;;;;;;24.15;100.00;100806.97;5059553;28;20040;-84
2022/08/24 09:32:45;;;;;;;21.27;15.68;;;;;;;24.15;100.00;100806.97;5064446;28;20033;-80
2022/08/24 09:35:17;;;;;;;22.10;15.82;;;;;;;24.23;100.00;100803.34;5065420;28;20069;-79
2022/08/24 09:38:02;;;;;;;20.73;14.95;;;;;;;24.27;100.00;100806.66;5063480;28;20055;-80
2022/08/24 09:41:01;;;;;;;23.63;14.95;;;;;;;24.25;100.00;100807.25;5066787;28;20025;-80
2022/08/24 09:43:56;;;;;;;18.88;15.20;;;;;;;24.19;100.00;100810.31;5065050;28;20358;-80
2022/08/24 09:46:48;;;;;;;23.25;15.48;;;;;;;24.17;100.00;100813.03;5050072;28;20064;-80
2022/08/24 09:49:26;;;;;;;22.35;14.75;;;;;;;24.14;100.00;100811.28;5064087;28;20032;-80
2022/08/24 09:52:13;;;;;;;25.38;17.10;;;;;;;24.06;100.00;100812.56;5062701;28;20052;-80
2022/08/24 09:55:00;;;;;;;20.75;15.15;;;;;;;24.09;100.00;100820.19;5063360;28;20017;-80
2022/08/24 09:58:01;;;;;;;27.73;17.30;;;;;;;24.01;100.00;100819.34;5065843;28;20072;-78
2022/08/24 10:00:38;;;;;;;29.15;16.90;;;;;;;23.93;100.00;100815.63;5067896;28;20024;-78
2022/08/24 10:03:22;;;;;;;26.02;17.45;;;;;;;23.87;100.00;100820.84;5068589;28;20062;-79
2022/08/24 10:06:06;;;;;;;20.30;16.38;;;;;;;23.78;100.00;100820.03;5063114;28;20060;-75
2022/08/24 10:08:57;;;;;;;47.65;20.75;;;;;;;23.63;100.00;100822.06;5055591;28;20029;-75
2022/08/24 10:11:41;;;;;;;57.33;21.45;;;;;;;23.48;100.00;100822.69;5047180;28;20432;-74
2022/08/24 10:14:18;;;;;;;25.52;16.17;;;;;;;23.38;100.00;100828.25;5055208;28;20029;-74
2022/08/24 10:16:59;;;;;;;48.83;20.10;;;;;;;23.31;100.00;100823.13;5055674;28;20063;-75
2022/08/24 10:19:50;;;;;;;26.27;16.98;;;;;;;23.23;100.00;100822.28;5054315;28;20025;-73
2022/08/24 10:22:27;;;;;;;25.27;17.25;;;;;;;23.18;100.00;100820.31;5055032;28;20037;-74
2022/08/24 10:24:52;;;;;;;26.95;17.48;;;;;;;23.13;100.00;100832.09;5037163;28;20025;-73
2022/08/24 10:27:33;;;;;;;23.13;16.23;;;;;;;23.15;100.00;100826.50;5053760;28;20021;-76
2022/08/24 10:30:19;;;;;;;24.10;16.83;;;;;;;23.20;100.00;100829.28;5055028;28;20059;-75
2022/08/24 10:33:12;;;;;;;25.30;16.23;;;;;;;23.26;100.00;100826.22;5055372;28;20067;-74
2022/08/24 10:36:11;;;;;;;24.63;17.35;;;;;;;23.30;100.00;100818.66;5053846;28;20025;-75
2022/08/24 10:41:40;;;;;;;33.83;19.95;;;;;;;23.49;100.00;100826.41;5053942;28;20098;-75
2022/08/24 10:44:17;;;;;;;39.75;20.55;;;;;;;23.62;100.00;100824.19;5054881;28;20035;-76
2022/08/24 10:46:50;;;;;;;38.60;20.35;;;;;;;23.74;100.00;100831.28;5054690;28;20036;-75
2022/08/24 10:49:58;;;;;;;41.08;20.83;;;;;;;23.85;100.00;100829.41;5054540;28;20028;-74
2022/08/24 10:52:42;;;;;;;22.50;16.83;;;;;;;23.88;100.00;100829.03;5040682;28;20501;-76
2022/08/24 10:55:27;;;;;;;25.17;16.58;;;;;;;24.03;100.00;100817.44;5054595;28;20036;-75
2022/08/24 10:58:21;;;;;;;21.45;16.10;;;;;;;24.26;100.00;100819.72;5054621;28;20044;-74
2022/08/24 11:00:47;;;;;;;24.08;15.93;;;;;;;24.53;100.00;100818.06;5054473;28;20104;-75
2022/08/24 11:03:21;;;;;;;28.85;17.42;;;;;;;24.81;100.00;100808.38;5054382;28;20051;-76
2022/08/24 11:05:54;;;;;;;25.95;16.88;;;;;;;25.20;100.00;100813.72;5052929;28;20037;-75
2022/08/24 11:08:23;;;;;;;24.20;16.83;;;;;;;25.65;100.00;100806.31;5054124;28;20068;-74
2022/08/24 11:11:07;;;;;;;22.05;15.88;;;;;;;26.06;96.65;100802.91;5054040;28;20025;-75
2022/08/24 11:13:35;;;;;;;17.98;14.90;;;;;;;26.27;95.39;100796.81;5054031;28;20033;-76
2022/08/24 11:16:02;;;;;;;23.58;16.67;;;;;;;26.38;91.30;100805.13;5052972;28;20032;-75
2022/08/24 11:18:48;;;;;;;21.80;15.02;;;;;;;26.49;88.96;100795.91;5053142;28;20082;-74
2022/08/24 11:21:40;;;;;;;23.67;16.08;;;;;;;26.53;86.10;100792.56;5052593;28;20389;-75
2022/08/24 11:24:10;;;;;;;22.45;15.55;;;;;;;26.57;87.14;100798.78;5053584;28;20052;-75
2022/08/24 11:26:55;;;;;;;22.20;15.63;;;;;;;26.55;86.66;100804.47;5054056;28;20028;-76